Adams Ranch #1

April 5, 2020, 8 a.m.

  • imperial
Air Temperature RH Wind Speed Wind Direction Precipitation Solar Radiation Soil Temperature
Date Time Max Min Mean Max Min Max Mean Mean Total Total
US/Mountain F F F % % MPH MPH deg. in. MJ/m^2 F
2020-04-04 08:00 32.9 31.82 32.36 86.0 83.0 10.6 5.39 90.0 0.0 0.106 112.64
2020-04-04 09:00 34.16 32.72 33.08 87.0 83.0 11.9 7.61 85.0 0.0 0.403 112.46
2020-04-04 10:00 40.1 34.16 36.68 83.0 67.0 11.99 7.0 79.0 0.0 1.591 113.18
2020-04-04 11:00 48.56 40.1 42.98 67.0 50.0 11.99 6.51 81.0 0.0 2.465 114.44
2020-04-04 12:00 55.04 48.56 51.62 50.0 40.0 12.91 6.71 87.0 0.0 2.916 115.88
2020-04-04 13:00 58.46 55.04 56.84 40.0 35.0 19.51 9.71 94.0 0.0 3.132 117.86
2020-04-04 14:00 61.16 58.46 59.72 35.0 25.0 15.5 7.0 75.0 0.0 2.707 122.54
2020-04-04 15:00 65.66 60.26 62.78 29.0 16.0 18.21 8.99 62.0 0.0 3.038 122.9
2020-04-04 16:00 65.66 63.32 64.76 17.0 16.0 18.7 10.11 61.0 0.0 2.632 125.96
2020-04-04 17:00 65.48 64.58 64.94 17.0 16.0 19.71 10.11 61.0 0.0 2.144 126.32
2020-04-04 18:00 65.48 60.08 64.22 32.0 16.0 18.59 8.79 67.0 0.0 1.302 128.48
2020-04-04 19:00 60.08 55.76 58.46 40.0 32.0 17.9 11.9 87.0 0.0 0.531 -147.82
2020-04-04 20:00 55.76 51.08 53.78 49.0 40.0 16.51 10.6 85.0 0.0 0.028 125.6
2020-04-04 21:00 51.08 48.38 50.18 55.0 49.0 13.0 8.1 85.0 0.0 0.0 122.9
2020-04-04 22:00 48.38 45.5 47.12 63.0 55.0 9.91 5.01 90.0 0.0 0.0 121.82
2020-04-04 23:00 45.5 41.54 44.6 73.0 63.0 7.61 4.0 104.0 0.0 0.0 121.1
2020-04-05 00:00 41.54 39.92 41.0 79.0 73.0 6.89 3.8 99.0 0.0 0.0 119.3
2020-04-05 01:00 39.92 36.86 38.3 86.0 79.0 4.9 1.61 60.0 0.0 0.0 118.76
2020-04-05 02:00 38.66 36.86 37.4 86.0 69.0 5.39 2.59 50.0 0.0 0.0 116.78
2020-04-05 03:00 40.82 34.88 36.5 85.0 55.0 5.91 1.9 54.0 0.0 0.0 116.42
2020-04-05 04:00 45.5 31.28 39.02 79.0 33.0 6.51 2.71 56.0 0.0 0.0 113.72
2020-04-05 05:00 47.12 45.5 46.58 33.0 30.0 9.4 5.91 54.0 0.0 0.0 112.82
2020-04-05 06:00 49.46 44.24 47.66 36.0 29.0 11.1 5.3 51.0 0.0 0.0 112.82
2020-04-05 07:00 48.92 44.24 46.4 36.0 31.0 14.5 6.6 53.0 0.0 0.013 111.56
2020-04-05 08:00 53.96 48.2 50.0 33.0 29.0 11.3 5.7 54.0 0.0 0.44 111.56

Data is presented as is, with no certification of correctness. DO NOT USE IN LEGAL PROCEEDINGS.